Time;durP1;ratioP1;P1;durP2;ratioP2;P2;SDS_P1;SDS_P2;PMS_P1;PMS_P2;Temp;Humidity;BMP_temperature;BMP_pressure;BME280_temperature;BME280_humidity;BME280_pressure;Samples;Min_cycle;Max_cycle;Signal;HPM_P1;HPM_P2
2022/01/07 17:04:12;;;;;;;6.15;1.58;;;3.70;99.90;;;;;;5095984;27;2013284;-63
2022/01/07 17:06:37;;;;;;;5.53;1.70;;;3.50;99.90;;;;;;5140287;27;20054;-63
2022/01/07 17:09:04;;;;;;;7.43;1.80;;;3.50;99.90;;;;;;5145535;27;20039;-64
2022/01/07 17:11:29;;;;;;;8.73;1.65;;;3.40;99.90;;;;;;5145681;27;20169;-64
2022/01/07 17:13:55;;;;;;;6.78;1.60;;;3.40;99.90;;;;;;5132688;27;20130;-64
2022/01/07 17:16:21;;;;;;;7.07;1.77;;;3.40;99.90;;;;;;5124984;27;20129;-64
2022/01/07 17:18:46;;;;;;;11.75;2.45;;;3.40;99.90;;;;;;5127923;27;20116;-64
2022/01/07 17:21:12;;;;;;;11.00;2.05;;;3.40;99.90;;;;;;5137922;27;20112;-64
2022/01/07 17:23:38;;;;;;;11.32;2.17;;;3.30;99.90;;;;;;5149977;27;20050;-64
2022/01/07 17:26:03;;;;;;;9.18;2.20;;;3.40;99.90;;;;;;5126613;27;20482;-64
2022/01/07 17:28:29;;;;;;;9.48;1.92;;;3.30;99.90;;;;;;5122739;27;20043;-64
2022/01/07 17:30:55;;;;;;;5.97;1.90;;;3.30;99.90;;;;;;5117339;28;20086;-64
2022/01/07 17:33:21;;;;;;;8.20;1.90;;;3.30;99.90;;;;;;5121589;27;20090;-64
2022/01/07 17:35:47;;;;;;;11.43;1.92;;;3.40;99.90;;;;;;5140176;27;20074;-64
2022/01/07 17:38:12;;;;;;;5.40;1.63;;;3.30;99.90;;;;;;5129384;27;20130;-64
2022/01/07 17:40:38;;;;;;;8.00;2.10;;;3.20;99.90;;;;;;5149421;27;20038;-64
2022/01/07 17:43:04;;;;;;;9.00;2.00;;;3.20;99.90;;;;;;5145655;27;20062;-64
2022/01/07 17:45:29;;;;;;;8.65;1.60;;;3.30;99.90;;;;;;5138096;27;20065;-64
2022/01/07 17:47:58;;;;;;;7.78;1.90;;;3.30;99.90;;;;;;5140312;27;20130;-64
2022/01/07 17:50:23;;;;;;;13.68;2.58;;;3.30;99.90;;;;;;5146621;27;20090;-64
2022/01/07 17:52:49;;;;;;;7.03;1.70;;;3.40;99.90;;;;;;5130821;27;20099;-64
2022/01/07 17:55:15;;;;;;;6.63;1.85;;;3.30;99.90;;;;;;5134502;27;20038;-64
2022/01/07 17:57:45;;;;;;;9.48;2.00;;;3.40;99.90;;;;;;5147792;27;20038;-64
2022/01/07 18:00:12;;;;;;;10.20;2.50;;;3.40;99.90;;;;;;5159994;27;20101;-64
2022/01/07 18:02:38;;;;;;;10.52;2.10;;;3.40;99.90;;;;;;5146205;27;20509;-64
2022/01/07 18:05:05;;;;;;;9.52;2.17;;;3.40;99.90;;;;;;5134196;27;20043;-64
2022/01/07 18:07:30;;;;;;;5.72;2.00;;;3.40;99.90;;;;;;5132910;27;20500;-64
2022/01/07 18:09:56;;;;;;;6.93;1.63;;;3.30;99.90;;;;;;5127359;27;20043;-64
2022/01/07 18:12:22;;;;;;;8.75;2.22;;;3.40;99.90;;;;;;5143567;27;20513;-64
2022/01/07 18:14:48;;;;;;;9.57;1.80;;;3.20;99.90;;;;;;5128851;27;20039;-64
2022/01/07 18:17:13;;;;;;;11.13;2.10;;;3.20;99.90;;;;;;5133636;27;20054;-64
2022/01/07 18:19:39;;;;;;;7.40;1.70;;;3.20;99.90;;;;;;5123261;27;20049;-64
2022/01/07 18:22:05;;;;;;;15.40;2.80;;;3.30;99.90;;;;;;5129241;27;20047;-64
2022/01/07 18:24:31;;;;;;;8.00;1.75;;;3.20;99.90;;;;;;5110187;28;20492;-64
2022/01/07 18:26:56;;;;;;;7.53;1.58;;;3.20;99.90;;;;;;5123791;27;20140;-63
2022/01/07 18:29:22;;;;;;;11.20;2.00;;;3.10;99.90;;;;;;5125171;27;20547;-64
2022/01/07 18:31:48;;;;;;;11.43;2.38;;;3.10;99.90;;;;;;5123974;27;20036;-64
2022/01/07 18:34:14;;;;;;;8.07;1.60;;;3.10;99.90;;;;;;5135990;27;20039;-64
2022/01/07 18:36:40;;;;;;;10.20;2.00;;;3.00;99.90;;;;;;5135008;27;20092;-63
2022/01/07 18:39:06;;;;;;;10.27;2.30;;;3.00;99.90;;;;;;5121813;27;20388;-64
2022/01/07 18:41:32;;;;;;;7.70;2.10;;;3.00;99.90;;;;;;5116642;27;20119;-63
2022/01/07 18:43:58;;;;;;;10.88;2.20;;;3.00;99.90;;;;;;5128451;27;20456;-64
2022/01/07 18:46:24;;;;;;;11.63;2.40;;;3.00;99.90;;;;;;5115483;27;20126;-64
2022/01/07 18:48:50;;;;;;;9.32;1.90;;;3.10;99.90;;;;;;5134999;27;20022;-63
2022/01/07 18:51:16;;;;;;;6.32;1.88;;;3.20;99.90;;;;;;5123434;27;20510;-64
2022/01/07 18:53:42;;;;;;;8.57;2.30;;;3.20;99.90;;;;;;5123653;27;20047;-64
2022/01/07 18:56:07;;;;;;;4.50;2.45;;;3.20;99.90;;;;;;5120540;27;20055;-64
2022/01/07 18:58:34;;;;;;;7.82;2.03;;;3.20;99.90;;;;;;5127685;27;20038;-63
2022/01/07 19:01:01;;;;;;;7.75;2.65;;;3.20;99.90;;;;;;5119606;27;20056;-63
2022/01/07 19:03:27;;;;;;;7.68;2.00;;;3.20;99.90;;;;;;5121577;27;20096;-63
2022/01/07 19:05:53;;;;;;;9.52;2.30;;;3.20;99.90;;;;;;5125873;27;20379;-63
2022/01/07 19:08:19;;;;;;;11.00;2.65;;;3.20;99.90;;;;;;5117719;27;20042;-64
2022/01/07 19:10:46;;;;;;;10.02;2.42;;;3.20;99.90;;;;;;5114496;27;20102;-64
2022/01/07 19:13:11;;;;;;;7.25;2.10;;;3.20;99.90;;;;;;5127241;27;20463;-63
2022/01/07 19:15:37;;;;;;;8.60;2.60;;;3.20;99.90;;;;;;5114457;27;20050;-64
2022/01/07 19:18:03;;;;;;;11.23;2.38;;;3.20;99.90;;;;;;5122384;27;20055;-64
2022/01/07 19:20:29;;;;;;;9.63;2.28;;;3.20;99.90;;;;;;5124567;27;20394;-63
2022/01/07 19:22:55;;;;;;;9.75;2.00;;;3.20;99.90;;;;;;5135448;27;20051;-64
2022/01/07 19:25:21;;;;;;;9.68;2.50;;;3.30;99.90;;;;;;5124221;27;20031;-64
2022/01/07 19:27:49;;;;;;;5.65;2.22;;;3.20;99.90;;;;;;5121916;27;20042;-63
2022/01/07 19:30:15;;;;;;;9.63;2.67;;;3.20;99.90;;;;;;5139100;27;20077;-64
2022/01/07 19:32:41;;;;;;;9.23;2.60;;;3.20;99.90;;;;;;5120461;27;20039;-63
2022/01/07 19:35:08;;;;;;;7.07;2.40;;;2.60;99.90;;;;;;5122322;27;20046;-63
2022/01/07 19:37:34;;;;;;;9.25;2.70;;;3.20;99.90;;;;;;5118178;27;20425;-63
2022/01/07 19:39:59;;;;;;;7.22;2.75;;;3.10;99.90;;;;;;5129093;27;20046;-63
2022/01/07 19:42:25;;;;;;;9.13;2.80;;;3.10;99.90;;;;;;5130620;27;20079;-63
2022/01/07 19:44:51;;;;;;;6.82;2.95;;;3.00;99.90;;;;;;5127278;27;20039;-63
2022/01/07 19:47:22;;;;;;;10.50;3.35;;;3.00;99.90;;;;;;5133789;27;20035;-63
2022/01/07 19:49:47;;;;;;;7.20;3.10;;;2.90;99.90;;;;;;5126499;27;20079;-63
2022/01/07 19:52:13;;;;;;;6.70;3.03;;;2.90;99.90;;;;;;5125985;27;20089;-64
2022/01/07 19:54:39;;;;;;;7.05;3.30;;;2.90;99.90;;;;;;5132683;27;20034;-64
2022/01/07 19:57:05;;;;;;;8.18;2.72;;;2.90;99.90;;;;;;5131952;27;20084;-63
2022/01/07 19:59:30;;;;;;;6.60;2.58;;;2.90;99.90;;;;;;5131708;27;20065;-63
2022/01/07 20:01:56;;;;;;;7.10;2.90;;;3.00;99.90;;;;;;5130824;27;20474;-64
2022/01/07 20:04:22;;;;;;;6.07;2.50;;;3.30;99.90;;;;;;5129625;27;20100;-63
2022/01/07 20:06:48;;;;;;;7.60;2.00;;;2.90;99.90;;;;;;5121405;27;20035;-63
2022/01/07 20:09:14;;;;;;;6.28;2.08;;;3.00;99.90;;;;;;5124514;27;20047;-64
2022/01/07 20:11:39;;;;;;;7.35;1.90;;;3.20;99.90;;;;;;5112712;27;20035;-63
2022/01/07 20:14:05;;;;;;;2.75;1.40;;;3.00;99.90;;;;;;5126854;27;20097;-63
2022/01/07 20:16:30;;;;;;;3.92;1.48;;;3.10;99.90;;;;;;5112648;28;20047;-64
2022/01/07 20:18:56;;;;;;;6.47;1.67;;;3.00;99.90;;;;;;5124765;27;20039;-63
2022/01/07 20:21:22;;;;;;;4.60;1.90;;;3.00;99.90;;;;;;5125040;27;20144;-63
2022/01/07 20:23:48;;;;;;;7.13;1.58;;;3.00;99.90;;;;;;5123859;27;20055;-64
2022/01/07 20:26:13;;;;;;;5.60;1.52;;;3.00;99.90;;;;;;5117523;27;20039;-64
2022/01/07 20:28:39;;;;;;;5.72;1.85;;;3.00;99.90;;;;;;5127121;27;20031;-64
2022/01/07 20:31:05;;;;;;;5.75;1.80;;;2.90;99.90;;;;;;5116046;27;20048;-64
2022/01/07 20:33:31;;;;;;;8.48;3.63;;;2.90;99.90;;;;;;5121887;27;20043;-64
2022/01/07 20:35:56;;;;;;;11.45;4.13;;;2.90;99.90;;;;;;5121176;27;20516;-64
2022/01/07 20:38:25;;;;;;;6.22;3.80;;;2.90;99.90;;;;;;5129102;27;20078;-64
2022/01/07 20:40:51;;;;;;;10.13;5.47;;;2.90;99.90;;;;;;5115231;27;20047;-64
2022/01/07 20:43:17;;;;;;;12.95;5.53;;;2.90;99.90;;;;;;5123636;27;20096;-64
2022/01/07 20:45:43;;;;;;;14.75;4.60;;;2.90;99.90;;;;;;5120714;27;20053;-64
2022/01/07 20:48:09;;;;;;;10.13;3.90;;;2.90;99.90;;;;;;5123604;27;20035;-64
2022/01/07 20:50:35;;;;;;;7.10;3.70;;;2.90;99.90;;;;;;5120448;27;20055;-64
2022/01/07 20:53:01;;;;;;;8.23;4.10;;;2.80;99.90;;;;;;5123279;27;20042;-64
2022/01/07 20:55:27;;;;;;;7.78;3.95;;;2.80;99.90;;;;;;5122542;27;20047;-64
2022/01/07 20:57:53;;;;;;;6.20;4.40;;;2.80;99.90;;;;;;5113857;28;20052;-64
2022/01/07 21:00:20;;;;;;;10.20;4.50;;;2.70;99.90;;;;;;5121064;27;20066;-64
2022/01/07 21:02:46;;;;;;;8.25;4.75;;;2.60;99.90;;;;;;5115697;27;20056;-64
2022/01/07 21:05:16;;;;;;;9.77;4.20;;;2.70;99.90;;;;;;5111710;27;20043;-65
2022/01/07 21:07:47;;;;;;;15.43;4.75;;;2.70;99.90;;;;;;5127082;27;20039;-64
2022/01/07 21:10:14;;;;;;;11.07;4.68;;;3.10;99.90;;;;;;5128355;27;20106;-64
2022/01/07 21:12:40;;;;;;;8.32;4.47;;;2.60;99.90;;;;;;5117920;28;20040;-64
2022/01/07 21:15:06;;;;;;;9.63;3.88;;;2.60;99.90;;;;;;5127856;28;20074;-65
2022/01/07 21:17:33;;;;;;;12.20;4.60;;;2.50;99.90;;;;;;5124603;27;20131;-64
2022/01/07 21:19:59;;;;;;;10.07;4.60;;;2.50;99.90;;;;;;5114129;28;20095;-64
2022/01/07 21:22:25;;;;;;;10.88;4.47;;;2.50;99.90;;;;;;5120222;27;20043;-64
2022/01/07 21:24:53;;;;;;;13.60;4.78;;;2.50;99.90;;;;;;5120953;28;20483;-64
2022/01/07 21:27:18;;;;;;;9.70;4.13;;;2.50;99.90;;;;;;5115314;28;20058;-64
2022/01/07 21:29:44;;;;;;;9.15;4.13;;;2.60;99.90;;;;;;5108433;27;20031;-64
2022/01/07 21:32:10;;;;;;;11.75;4.22;;;2.50;99.90;;;;;;5128640;27;20042;-64
2022/01/07 21:34:36;;;;;;;10.60;4.90;;;2.60;99.90;;;;;;5117871;28;20076;-64
2022/01/07 21:37:02;;;;;;;11.32;4.22;;;2.60;99.90;;;;;;5120681;28;20043;-64
2022/01/07 21:39:28;;;;;;;10.57;4.07;;;2.60;99.90;;;;;;5113789;27;20131;-64
2022/01/07 21:41:54;;;;;;;10.82;4.38;;;2.60;99.90;;;;;;5132055;27;20527;-64
2022/01/07 21:44:19;;;;;;;11.18;4.30;;;2.50;99.90;;;;;;5116196;28;20122;-64
2022/01/07 21:46:45;;;;;;;15.00;4.70;;;2.50;99.90;;;;;;5116217;27;20071;-64
2022/01/07 21:49:11;;;;;;;12.13;4.38;;;2.50;99.90;;;;;;5124704;27;20043;-64
2022/01/07 21:51:37;;;;;;;13.20;4.93;;;2.50;99.90;;;;;;5134897;27;20672;-64
2022/01/07 21:54:03;;;;;;;9.95;3.70;;;2.60;99.90;;;;;;5147425;27;20062;-64
2022/01/07 21:56:33;;;;;;;7.90;4.05;;;2.50;99.90;;;;;;5145529;27;20042;-64
2022/01/07 21:58:59;;;;;;;8.82;4.10;;;3.20;99.90;;;;;;5124541;27;20056;-64
2022/01/07 22:01:24;;;;;;;9.02;3.72;;;2.50;99.90;;;;;;5125874;27;20438;-64
2022/01/07 22:03:50;;;;;;;12.25;4.43;;;2.50;99.90;;;;;;5123995;27;20047;-64
2022/01/07 22:06:16;;;;;;;11.30;4.43;;;2.50;99.90;;;;;;5123158;27;20055;-64
2022/01/07 22:08:41;;;;;;;6.70;3.35;;;2.50;99.90;;;;;;5123229;27;20090;-64
2022/01/07 22:11:07;;;;;;;7.10;2.97;;;2.50;99.90;;;;;;5120074;27;20389;-64
2022/01/07 22:13:33;;;;;;;10.35;3.10;;;2.60;99.90;;;;;;5134370;27;20093;-64
2022/01/07 22:15:59;;;;;;;7.95;3.40;;;2.60;99.90;;;;;;5139082;27;20102;-64
2022/01/07 22:18:25;;;;;;;12.75;4.22;;;2.60;99.90;;;;;;5128655;27;20475;-64
2022/01/07 22:20:51;;;;;;;8.30;4.00;;;2.60;99.90;;;;;;5129596;27;20405;-64
2022/01/07 22:23:17;;;;;;;11.63;3.90;;;2.50;99.90;;;;;;5132147;27;20067;-64
2022/01/07 22:25:43;;;;;;;10.15;4.38;;;2.50;99.90;;;;;;5131484;27;20384;-64
2022/01/07 22:28:09;;;;;;;11.02;4.68;;;2.50;99.90;;;;;;5124244;27;20482;-64
2022/01/07 22:30:35;;;;;;;10.77;4.28;;;2.50;99.90;;;;;;5113510;28;20058;-64
2022/01/07 22:33:00;;;;;;;11.60;4.40;;;2.50;99.90;;;;;;5101411;27;20036;-64
2022/01/07 22:35:26;;;;;;;6.90;3.72;;;2.40;99.90;;;;;;5130109;27;20051;-64
2022/01/07 22:37:53;;;;;;;8.27;3.80;;;2.40;99.90;;;;;;5120256;27;20489;-64
2022/01/07 22:40:20;;;;;;;8.18;3.78;;;2.40;99.90;;;;;;5120414;27;20044;-64
2022/01/07 22:42:49;;;;;;;9.65;4.10;;;2.40;99.90;;;;;;5117662;27;20106;-64
2022/01/07 22:45:16;;;;;;;11.65;4.90;;;2.40;99.90;;;;;;5124064;27;20074;-64
2022/01/07 22:47:42;;;;;;;9.50;4.57;;;2.40;99.90;;;;;;5134024;27;20075;-64
2022/01/07 22:50:10;;;;;;;8.60;4.25;;;2.40;99.90;;;;;;5127197;27;20055;-64
2022/01/07 22:52:36;;;;;;;7.45;4.28;;;2.40;99.90;;;;;;5121667;27;20054;-64
2022/01/07 22:55:03;;;;;;;7.93;3.65;;;2.40;99.90;;;;;;5124791;27;20134;-65
2022/01/07 22:57:29;;;;;;;9.95;3.92;;;2.40;99.90;;;;;;5120214;27;20107;-64
2022/01/07 22:59:55;;;;;;;6.93;3.35;;;2.40;99.90;;;;;;5132186;27;20059;-64
2022/01/07 23:02:21;;;;;;;7.40;4.15;;;2.40;99.90;;;;;;5126812;27;20086;-64
2022/01/07 23:04:46;;;;;;;8.15;3.55;;;2.40;99.90;;;;;;5131438;27;20045;-64
2022/01/07 23:07:13;;;;;;;9.52;3.80;;;2.40;99.90;;;;;;5114627;27;20032;-64
2022/01/07 23:09:39;;;;;;;6.20;3.30;;;2.40;99.90;;;;;;5119822;27;20043;-65
2022/01/07 23:12:05;;;;;;;8.85;3.38;;;2.30;99.90;;;;;;5113995;28;20054;-64
2022/01/07 23:14:31;;;;;;;10.48;4.35;;;2.30;99.90;;;;;;5115705;27;20069;-64
2022/01/07 23:16:58;;;;;;;11.57;3.83;;;2.30;99.90;;;;;;5126874;27;20117;-64
2022/01/07 23:19:27;;;;;;;7.57;3.50;;;2.30;99.90;;;;;;5124334;27;20044;-64
2022/01/07 23:21:53;;;;;;;9.15;3.58;;;2.30;99.90;;;;;;5136248;27;20083;-64
2022/01/07 23:24:19;;;;;;;12.93;4.13;;;2.30;99.90;;;;;;5122392;27;20039;-64
2022/01/07 23:26:45;;;;;;;11.65;3.63;;;2.20;99.90;;;;;;5113722;27;20395;-64
2022/01/07 23:29:11;;;;;;;9.75;3.45;;;2.20;99.90;;;;;;5131490;27;20035;-64
2022/01/07 23:31:38;;;;;;;9.25;3.08;;;2.20;99.90;;;;;;5128682;27;20193;-64
2022/01/07 23:34:06;;;;;;;11.05;3.42;;;2.10;99.90;;;;;;5144221;27;20031;-64
2022/01/07 23:36:34;;;;;;;9.50;3.35;;;2.10;99.90;;;;;;5125113;27;20052;-64
2022/01/07 23:39:01;;;;;;;12.82;3.65;;;2.10;99.90;;;;;;5119614;27;20402;-64
2022/01/07 23:41:28;;;;;;;8.40;3.88;;;2.10;99.90;;;;;;5123560;27;20148;-64
2022/01/07 23:43:54;;;;;;;7.97;3.75;;;2.30;99.90;;;;;;5118218;27;20067;-63
2022/01/07 23:46:20;;;;;;;9.40;4.00;;;2.20;99.90;;;;;;5126318;27;20056;-63
2022/01/07 23:48:46;;;;;;;7.22;4.03;;;2.10;99.90;;;;;;5117442;27;20406;-64
2022/01/07 23:51:12;;;;;;;10.00;4.40;;;2.10;99.90;;;;;;5126775;27;20044;-64
2022/01/07 23:53:38;;;;;;;11.80;4.25;;;2.10;99.90;;;;;;5126222;27;20043;-64
2022/01/07 23:56:04;;;;;;;11.20;4.88;;;2.20;99.90;;;;;;5127866;27;20047;-64
2022/01/07 23:58:29;;;;;;;9.35;4.50;;;2.10;99.90;;;;;;5131731;27;20058;-64
